sensor_id;sensor_type;location;lat;lon;timestamp;temperature;humidity
21167;DHT22;10741;52.272;9.580;2023-01-15T00:01:04;8.90;99.90
21167;DHT22;10741;52.272;9.580;2023-01-15T00:03:30;8.70;99.90
21167;DHT22;10741;52.272;9.580;2023-01-15T00:06:01;8.60;99.90
21167;DHT22;10741;52.272;9.580;2023-01-15T00:08:27;8.30;99.90
21167;DHT22;10741;52.272;9.580;2023-01-15T00:10:53;8.20;99.90
21167;DHT22;10741;52.272;9.580;2023-01-15T00:13:20;8.10;99.90
21167;DHT22;10741;52.272;9.580;2023-01-15T00:15:46;8.00;99.90
21167;DHT22;10741;52.272;9.580;2023-01-15T00:18:12;7.80;99.90
21167;DHT22;10741;52.272;9.580;2023-01-15T00:20:37;7.70;99.90
21167;DHT22;10741;52.272;9.580;2023-01-15T00:23:03;7.50;99.90
21167;DHT22;10741;52.272;9.580;2023-01-15T00:25:29;7.30;99.90
21167;DHT22;10741;52.272;9.580;2023-01-15T00:28:13;7.20;99.90
21167;DHT22;10741;52.272;9.580;2023-01-15T00:30:40;7.10;99.90
21167;DHT22;10741;52.272;9.580;2023-01-15T00:33:07;6.90;99.90
21167;DHT22;10741;52.272;9.580;2023-01-15T00:35:33;6.80;99.90
21167;DHT22;10741;52.272;9.580;2023-01-15T00:37:58;6.70;99.90
21167;DHT22;10741;52.272;9.580;2023-01-15T00:40:24;6.70;99.90
21167;DHT22;10741;52.272;9.580;2023-01-15T00:42:50;6.60;99.90
21167;DHT22;10741;52.272;9.580;2023-01-15T00:45:16;6.60;99.90
21167;DHT22;10741;52.272;9.580;2023-01-15T00:47:43;6.60;99.90
21167;DHT22;10741;52.272;9.580;2023-01-15T00:50:12;6.50;99.90
21167;DHT22;10741;52.272;9.580;2023-01-15T00:52:38;6.50;99.90
21167;DHT22;10741;52.272;9.580;2023-01-15T00:55:05;6.40;99.90
21167;DHT22;10741;52.272;9.580;2023-01-15T00:57:31;6.40;99.90
21167;DHT22;10741;52.272;9.580;2023-01-15T00:59:57;6.30;99.90
21167;DHT22;10741;52.272;9.580;2023-01-15T01:02:23;6.30;99.90
21167;DHT22;10741;52.272;9.580;2023-01-15T01:04:49;6.20;99.90
21167;DHT22;10741;52.272;9.580;2023-01-15T01:07:15;6.20;99.90
21167;DHT22;10741;52.272;9.580;2023-01-15T01:09:41;6.20;99.90
21167;DHT22;10741;52.272;9.580;2023-01-15T01:12:07;6.20;99.90
21167;DHT22;10741;52.272;9.580;2023-01-15T01:14:33;6.10;99.90
21167;DHT22;10741;52.272;9.580;2023-01-15T01:16:58;6.10;99.90
21167;DHT22;10741;52.272;9.580;2023-01-15T01:19:25;6.00;99.90
21167;DHT22;10741;52.272;9.580;2023-01-15T01:21:51;6.10;99.90
21167;DHT22;10741;52.272;9.580;2023-01-15T01:24:22;6.00;99.90
21167;DHT22;10741;52.272;9.580;2023-01-15T01:26:49;5.90;99.90
21167;DHT22;10741;52.272;9.580;2023-01-15T01:29:20;5.80;99.90
21167;DHT22;10741;52.272;9.580;2023-01-15T01:31:46;5.80;99.90
21167;DHT22;10741;52.272;9.580;2023-01-15T01:34:13;5.80;99.90
21167;DHT22;10741;52.272;9.580;2023-01-15T01:36:42;5.70;99.90
21167;DHT22;10741;52.272;9.580;2023-01-15T01:39:15;5.60;99.90
21167;DHT22;10741;52.272;9.580;2023-01-15T01:41:42;5.60;99.90
21167;DHT22;10741;52.272;9.580;2023-01-15T01:46:57;5.50;99.90
21167;DHT22;10741;52.272;9.580;2023-01-15T01:49:24;5.50;99.90
21167;DHT22;10741;52.272;9.580;2023-01-15T01:51:55;5.50;99.90
21167;DHT22;10741;52.272;9.580;2023-01-15T01:54:24;5.50;99.90
21167;DHT22;10741;52.272;9.580;2023-01-15T01:56:51;5.50;99.90
21167;DHT22;10741;52.272;9.580;2023-01-15T01:59:18;5.40;99.90
21167;DHT22;10741;52.272;9.580;2023-01-15T02:01:46;5.40;99.90
21167;DHT22;10741;52.272;9.580;2023-01-15T02:04:12;5.40;99.90
21167;DHT22;10741;52.272;9.580;2023-01-15T02:06:40;5.40;99.90
21167;DHT22;10741;52.272;9.580;2023-01-15T02:09:07;5.40;99.90
21167;DHT22;10741;52.272;9.580;2023-01-15T02:11:33;5.30;99.90
21167;DHT22;10741;52.272;9.580;2023-01-15T02:16:42;5.20;99.90
21167;DHT22;10741;52.272;9.580;2023-01-15T02:19:29;5.20;99.90
21167;DHT22;10741;52.272;9.580;2023-01-15T02:25:07;5.10;99.90
21167;DHT22;10741;52.272;9.580;2023-01-15T02:27:40;5.10;99.90
21167;DHT22;10741;52.272;9.580;2023-01-15T02:30:26;5.10;99.90
21167;DHT22;10741;52.272;9.580;2023-01-15T02:32:58;5.10;99.90
21167;DHT22;10741;52.272;9.580;2023-01-15T02:35:37;5.10;99.90
21167;DHT22;10741;52.272;9.580;2023-01-15T02:38:07;5.00;99.90
21167;DHT22;10741;52.272;9.580;2023-01-15T02:40:36;5.00;99.90
21167;DHT22;10741;52.272;9.580;2023-01-15T02:43:03;5.00;99.90
21167;DHT22;10741;52.272;9.580;2023-01-15T02:45:31;5.00;99.90
21167;DHT22;10741;52.272;9.580;2023-01-15T02:48:04;5.10;99.90
21167;DHT22;10741;52.272;9.580;2023-01-15T02:50:35;5.00;99.90
21167;DHT22;10741;52.272;9.580;2023-01-15T02:53:06;5.00;99.90
21167;DHT22;10741;52.272;9.580;2023-01-15T02:55:42;5.00;99.90
21167;DHT22;10741;52.272;9.580;2023-01-15T02:58:10;5.00;99.90
21167;DHT22;10741;52.272;9.580;2023-01-15T03:00:41;5.00;99.90
21167;DHT22;10741;52.272;9.580;2023-01-15T03:03:42;5.00;99.90
21167;DHT22;10741;52.272;9.580;2023-01-15T03:08:40;5.10;99.90
21167;DHT22;10741;52.272;9.580;2023-01-15T03:19:26;5.10;99.90
21167;DHT22;10741;52.272;9.580;2023-01-15T03:22:29;5.10;99.90
21167;DHT22;10741;52.272;9.580;2023-01-15T03:25:09;5.10;99.90
21167;DHT22;10741;52.272;9.580;2023-01-15T03:27:36;5.10;99.90
21167;DHT22;10741;52.272;9.580;2023-01-15T03:30:06;5.10;99.90
21167;DHT22;10741;52.272;9.580;2023-01-15T03:32:33;5.20;99.90
21167;DHT22;10741;52.272;9.580;2023-01-15T03:34:59;5.10;99.90
21167;DHT22;10741;52.272;9.580;2023-01-15T03:37:26;5.20;99.90
21167;DHT22;10741;52.272;9.580;2023-01-15T03:39:53;5.20;99.90
21167;DHT22;10741;52.272;9.580;2023-01-15T03:44:51;5.20;99.90
21167;DHT22;10741;52.272;9.580;2023-01-15T03:53:12;5.30;99.90
21167;DHT22;10741;52.272;9.580;2023-01-15T03:56:00;5.30;99.90
21167;DHT22;10741;52.272;9.580;2023-01-15T03:58:33;5.30;99.90
21167;DHT22;10741;52.272;9.580;2023-01-15T04:01:02;5.20;99.90
21167;DHT22;10741;52.272;9.580;2023-01-15T04:03:31;5.30;99.90
21167;DHT22;10741;52.272;9.580;2023-01-15T04:06:00;5.30;99.90
21167;DHT22;10741;52.272;9.580;2023-01-15T04:08:31;5.30;99.90
21167;DHT22;10741;52.272;9.580;2023-01-15T04:10:59;5.30;99.90
21167;DHT22;10741;52.272;9.580;2023-01-15T04:13:25;5.30;99.90
21167;DHT22;10741;52.272;9.580;2023-01-15T04:15:51;5.30;99.90
21167;DHT22;10741;52.272;9.580;2023-01-15T04:18:17;5.30;99.90
21167;DHT22;10741;52.272;9.580;2023-01-15T04:20:43;5.30;99.90
21167;DHT22;10741;52.272;9.580;2023-01-15T04:23:09;5.20;99.90
21167;DHT22;10741;52.272;9.580;2023-01-15T04:25:36;5.20;99.90
21167;DHT22;10741;52.272;9.580;2023-01-15T04:28:02;5.20;99.90
21167;DHT22;10741;52.272;9.580;2023-01-15T04:30:28;5.20;99.90
21167;DHT22;10741;52.272;9.580;2023-01-15T04:32:53;5.20;99.90
21167;DHT22;10741;52.272;9.580;2023-01-15T04:35:19;5.30;99.90
21167;DHT22;10741;52.272;9.580;2023-01-15T04:37:45;5.30;99.90
21167;DHT22;10741;52.272;9.580;2023-01-15T04:40:11;5.30;99.90
21167;DHT22;10741;52.272;9.580;2023-01-15T04:43:00;5.30;99.90
21167;DHT22;10741;52.272;9.580;2023-01-15T04:45:44;5.20;99.90
21167;DHT22;10741;52.272;9.580;2023-01-15T04:48:11;5.20;99.90
21167;DHT22;10741;52.272;9.580;2023-01-15T04:50:39;5.30;99.90
21167;DHT22;10741;52.272;9.580;2023-01-15T04:53:05;5.20;99.90
21167;DHT22;10741;52.272;9.580;2023-01-15T04:55:30;5.20;99.90
21167;DHT22;10741;52.272;9.580;2023-01-15T04:57:56;5.20;99.90
21167;DHT22;10741;52.272;9.580;2023-01-15T05:00:22;5.20;99.90
21167;DHT22;10741;52.272;9.580;2023-01-15T05:02:48;5.20;99.90
21167;DHT22;10741;52.272;9.580;2023-01-15T05:05:14;5.20;99.90
21167;DHT22;10741;52.272;9.580;2023-01-15T05:07:40;5.20;99.90
21167;DHT22;10741;52.272;9.580;2023-01-15T05:10:06;5.10;99.90
21167;DHT22;10741;52.272;9.580;2023-01-15T05:12:32;5.10;99.90
21167;DHT22;10741;52.272;9.580;2023-01-15T05:14:58;5.20;99.90
21167;DHT22;10741;52.272;9.580;2023-01-15T05:17:24;5.20;99.90
21167;DHT22;10741;52.272;9.580;2023-01-15T05:19:49;5.20;99.90
21167;DHT22;10741;52.272;9.580;2023-01-15T05:22:15;5.20;99.90
21167;DHT22;10741;52.272;9.580;2023-01-15T05:24:41;5.30;99.90
21167;DHT22;10741;52.272;9.580;2023-01-15T05:27:07;5.20;99.90
21167;DHT22;10741;52.272;9.580;2023-01-15T05:29:32;5.20;99.90
21167;DHT22;10741;52.272;9.580;2023-01-15T05:31:58;5.20;99.90
21167;DHT22;10741;52.272;9.580;2023-01-15T05:34:24;5.30;99.90
21167;DHT22;10741;52.272;9.580;2023-01-15T05:36:49;5.30;99.90
21167;DHT22;10741;52.272;9.580;2023-01-15T05:39:15;5.30;99.90
21167;DHT22;10741;52.272;9.580;2023-01-15T05:41:41;5.30;99.90
21167;DHT22;10741;52.272;9.580;2023-01-15T05:44:23;5.30;99.90
21167;DHT22;10741;52.272;9.580;2023-01-15T05:46:51;5.30;99.90
21167;DHT22;10741;52.272;9.580;2023-01-15T05:49:19;5.30;99.90
21167;DHT22;10741;52.272;9.580;2023-01-15T05:51:46;5.30;99.90
21167;DHT22;10741;52.272;9.580;2023-01-15T05:54:15;5.30;99.90
21167;DHT22;10741;52.272;9.580;2023-01-15T05:56:42;5.40;99.90
21167;DHT22;10741;52.272;9.580;2023-01-15T05:59:08;5.40;99.90
21167;DHT22;10741;52.272;9.580;2023-01-15T06:01:34;5.40;99.90
21167;DHT22;10741;52.272;9.580;2023-01-15T06:04:01;5.40;99.90
21167;DHT22;10741;52.272;9.580;2023-01-15T06:06:28;5.40;99.90
21167;DHT22;10741;52.272;9.580;2023-01-15T06:08:54;5.40;99.90
21167;DHT22;10741;52.272;9.580;2023-01-15T06:11:20;5.40;99.90
21167;DHT22;10741;52.272;9.580;2023-01-15T06:13:45;5.40;99.90
21167;DHT22;10741;52.272;9.580;2023-01-15T06:16:11;5.40;99.90
21167;DHT22;10741;52.272;9.580;2023-01-15T06:18:38;5.40;99.90
21167;DHT22;10741;52.272;9.580;2023-01-15T06:21:06;5.50;99.90
21167;DHT22;10741;52.272;9.580;2023-01-15T06:23:32;5.50;99.90
21167;DHT22;10741;52.272;9.580;2023-01-15T06:26:02;5.50;99.90
21167;DHT22;10741;52.272;9.580;2023-01-15T06:28:28;5.60;99.90
21167;DHT22;10741;52.272;9.580;2023-01-15T06:30:54;5.70;99.90
21167;DHT22;10741;52.272;9.580;2023-01-15T06:33:20;5.70;99.90
21167;DHT22;10741;52.272;9.580;2023-01-15T06:35:45;5.80;99.90
21167;DHT22;10741;52.272;9.580;2023-01-15T06:38:11;5.90;99.90
21167;DHT22;10741;52.272;9.580;2023-01-15T06:40:37;5.90;99.90
21167;DHT22;10741;52.272;9.580;2023-01-15T06:43:03;5.90;99.90
21167;DHT22;10741;52.272;9.580;2023-01-15T06:45:47;6.00;99.90
21167;DHT22;10741;52.272;9.580;2023-01-15T06:48:51;6.10;99.90
21167;DHT22;10741;52.272;9.580;2023-01-15T06:51:18;6.10;99.90
21167;DHT22;10741;52.272;9.580;2023-01-15T06:53:45;6.10;99.90
21167;DHT22;10741;52.272;9.580;2023-01-15T06:56:12;6.00;99.90
21167;DHT22;10741;52.272;9.580;2023-01-15T06:58:42;6.00;99.90
21167;DHT22;10741;52.272;9.580;2023-01-15T07:01:13;6.00;99.90
21167;DHT22;10741;52.272;9.580;2023-01-15T07:03:40;6.10;99.90
21167;DHT22;10741;52.272;9.580;2023-01-15T07:06:11;6.10;99.90
21167;DHT22;10741;52.272;9.580;2023-01-15T07:08:37;6.20;99.90
21167;DHT22;10741;52.272;9.580;2023-01-15T07:11:07;6.10;99.90
21167;DHT22;10741;52.272;9.580;2023-01-15T07:13:34;6.20;99.90
21167;DHT22;10741;52.272;9.580;2023-01-15T07:16:01;6.20;99.90
21167;DHT22;10741;52.272;9.580;2023-01-15T07:18:28;6.20;99.90
21167;DHT22;10741;52.272;9.580;2023-01-15T07:20:55;6.20;99.90
21167;DHT22;10741;52.272;9.580;2023-01-15T07:23:23;6.20;99.90
21167;DHT22;10741;52.272;9.580;2023-01-15T07:25:50;6.10;99.90
21167;DHT22;10741;52.272;9.580;2023-01-15T07:28:16;6.10;99.90
21167;DHT22;10741;52.272;9.580;2023-01-15T07:30:42;6.10;99.90
21167;DHT22;10741;52.272;9.580;2023-01-15T07:33:08;6.20;99.90
21167;DHT22;10741;52.272;9.580;2023-01-15T07:35:34;6.10;99.90
21167;DHT22;10741;52.272;9.580;2023-01-15T07:38:01;6.10;99.90
21167;DHT22;10741;52.272;9.580;2023-01-15T07:40:27;6.20;99.90
21167;DHT22;10741;52.272;9.580;2023-01-15T07:42:53;6.20;99.90
21167;DHT22;10741;52.272;9.580;2023-01-15T07:45:41;6.20;99.90
21167;DHT22;10741;52.272;9.580;2023-01-15T07:48:30;6.20;99.90
21167;DHT22;10741;52.272;9.580;2023-01-15T07:51:15;6.10;99.90
21167;DHT22;10741;52.272;9.580;2023-01-15T07:53:40;6.10;99.90
21167;DHT22;10741;52.272;9.580;2023-01-15T07:56:07;6.10;99.90
21167;DHT22;10741;52.272;9.580;2023-01-15T07:58:33;6.20;99.90
21167;DHT22;10741;52.272;9.580;2023-01-15T08:00:59;6.20;99.90
21167;DHT22;10741;52.272;9.580;2023-01-15T08:03:24;6.20;99.90
21167;DHT22;10741;52.272;9.580;2023-01-15T08:05:50;6.20;99.90
21167;DHT22;10741;52.272;9.580;2023-01-15T08:08:16;6.20;99.90
21167;DHT22;10741;52.272;9.580;2023-01-15T08:10:43;6.20;99.90
21167;DHT22;10741;52.272;9.580;2023-01-15T08:13:27;6.30;99.90
21167;DHT22;10741;52.272;9.580;2023-01-15T08:16:12;6.30;99.90
21167;DHT22;10741;52.272;9.580;2023-01-15T08:18:38;6.30;99.90
21167;DHT22;10741;52.272;9.580;2023-01-15T08:21:04;6.30;99.90
21167;DHT22;10741;52.272;9.580;2023-01-15T08:23:30;6.30;99.90
21167;DHT22;10741;52.272;9.580;2023-01-15T08:25:59;6.30;99.90
21167;DHT22;10741;52.272;9.580;2023-01-15T08:28:25;6.40;99.90
21167;DHT22;10741;52.272;9.580;2023-01-15T08:30:51;6.40;99.90
21167;DHT22;10741;52.272;9.580;2023-01-15T08:33:17;6.50;99.90
21167;DHT22;10741;52.272;9.580;2023-01-15T08:35:43;6.50;99.90
21167;DHT22;10741;52.272;9.580;2023-01-15T08:38:10;6.50;99.90
21167;DHT22;10741;52.272;9.580;2023-01-15T08:40:36;6.50;99.90
21167;DHT22;10741;52.272;9.580;2023-01-15T08:43:21;6.50;99.90
21167;DHT22;10741;52.272;9.580;2023-01-15T08:45:47;6.50;99.90
21167;DHT22;10741;52.272;9.580;2023-01-15T08:48:13;6.50;99.90
21167;DHT22;10741;52.272;9.580;2023-01-15T08:50:39;6.50;99.90
21167;DHT22;10741;52.272;9.580;2023-01-15T08:53:04;6.50;99.90
21167;DHT22;10741;52.272;9.580;2023-01-15T08:55:30;6.50;99.90
21167;DHT22;10741;52.272;9.580;2023-01-15T08:57:57;6.40;99.90
21167;DHT22;10741;52.272;9.580;2023-01-15T09:00:23;6.40;99.90
21167;DHT22;10741;52.272;9.580;2023-01-15T09:02:49;6.40;99.90
21167;DHT22;10741;52.272;9.580;2023-01-15T09:05:15;6.40;99.90
21167;DHT22;10741;52.272;9.580;2023-01-15T09:07:41;6.40;99.90
21167;DHT22;10741;52.272;9.580;2023-01-15T09:10:07;6.40;99.90
21167;DHT22;10741;52.272;9.580;2023-01-15T09:12:33;6.40;99.90
21167;DHT22;10741;52.272;9.580;2023-01-15T09:14:59;6.50;99.90
21167;DHT22;10741;52.272;9.580;2023-01-15T09:17:26;6.50;99.90
21167;DHT22;10741;52.272;9.580;2023-01-15T09:19:52;6.50;99.90
21167;DHT22;10741;52.272;9.580;2023-01-15T09:22:18;6.60;99.90
21167;DHT22;10741;52.272;9.580;2023-01-15T09:24:44;6.60;99.90
21167;DHT22;10741;52.272;9.580;2023-01-15T09:27:11;6.70;99.90
21167;DHT22;10741;52.272;9.580;2023-01-15T09:29:36;6.70;99.90
21167;DHT22;10741;52.272;9.580;2023-01-15T09:32:02;6.70;99.90
21167;DHT22;10741;52.272;9.580;2023-01-15T09:34:28;6.70;99.90
21167;DHT22;10741;52.272;9.580;2023-01-15T09:36:54;6.80;99.90
21167;DHT22;10741;52.272;9.580;2023-01-15T09:39:19;6.80;99.90
21167;DHT22;10741;52.272;9.580;2023-01-15T09:50:38;6.80;99.90
21167;DHT22;10741;52.272;9.580;2023-01-15T09:55:46;6.90;99.90
21167;DHT22;10741;52.272;9.580;2023-01-15T09:58:14;7.20;99.90
21167;DHT22;10741;52.272;9.580;2023-01-15T10:00:51;7.40;99.90
21167;DHT22;10741;52.272;9.580;2023-01-15T10:05:49;7.70;99.90
21167;DHT22;10741;52.272;9.580;2023-01-15T10:08:45;7.80;99.90
21167;DHT22;10741;52.272;9.580;2023-01-15T10:13:46;8.00;99.90
21167;DHT22;10741;52.272;9.580;2023-01-15T10:16:19;7.70;99.90
21167;DHT22;10741;52.272;9.580;2023-01-15T10:18:46;7.50;99.90
21167;DHT22;10741;52.272;9.580;2023-01-15T10:21:42;7.40;99.90
21167;DHT22;10741;52.272;9.580;2023-01-15T10:24:18;7.20;99.90
21167;DHT22;10741;52.272;9.580;2023-01-15T10:26:55;7.10;99.90
21167;DHT22;10741;52.272;9.580;2023-01-15T10:35:31;6.80;99.90
21167;DHT22;10741;52.272;9.580;2023-01-15T10:37:39;6.70;99.90
21167;DHT22;10741;52.272;9.580;2023-01-15T10:40:29;6.70;99.90
21167;DHT22;10741;52.272;9.580;2023-01-15T10:45:41;6.80;99.90
21167;DHT22;10741;52.272;9.580;2023-01-15T10:51:06;6.90;99.90
21167;DHT22;10741;52.272;9.580;2023-01-15T10:53:48;6.90;99.90
21167;DHT22;10741;52.272;9.580;2023-01-15T10:56:30;7.10;99.90
21167;DHT22;10741;52.272;9.580;2023-01-15T10:59:11;7.30;99.90
21167;DHT22;10741;52.272;9.580;2023-01-15T11:01:38;7.70;99.90
21167;DHT22;10741;52.272;9.580;2023-01-15T11:04:07;7.80;99.90
21167;DHT22;10741;52.272;9.580;2023-01-15T11:06:33;7.80;99.90
21167;DHT22;10741;52.272;9.580;2023-01-15T11:08:59;7.60;99.90
21167;DHT22;10741;52.272;9.580;2023-01-15T11:11:44;7.70;99.90
21167;DHT22;10741;52.272;9.580;2023-01-15T11:14:36;7.60;99.90
21167;DHT22;10741;52.272;9.580;2023-01-15T11:17:29;7.70;99.90
21167;DHT22;10741;52.272;9.580;2023-01-15T11:22:49;7.70;99.90
21167;DHT22;10741;52.272;9.580;2023-01-15T11:25:27;8.20;99.90
21167;DHT22;10741;52.272;9.580;2023-01-15T11:27:54;8.40;99.90
21167;DHT22;10741;52.272;9.580;2023-01-15T11:30:28;8.40;99.90
21167;DHT22;10741;52.272;9.580;2023-01-15T11:32:55;8.30;99.90
21167;DHT22;10741;52.272;9.580;2023-01-15T11:35:22;8.10;99.90
21167;DHT22;10741;52.272;9.580;2023-01-15T11:37:47;8.00;99.90
21167;DHT22;10741;52.272;9.580;2023-01-15T11:40:21;7.90;99.90
21167;DHT22;10741;52.272;9.580;2023-01-15T11:42:51;7.80;99.90
21167;DHT22;10741;52.272;9.580;2023-01-15T11:45:55;7.70;99.90
21167;DHT22;10741;52.272;9.580;2023-01-15T11:48:45;7.70;99.90
21167;DHT22;10741;52.272;9.580;2023-01-15T11:51:40;7.70;99.90
21167;DHT22;10741;52.272;9.580;2023-01-15T11:54:10;7.70;99.90
21167;DHT22;10741;52.272;9.580;2023-01-15T11:56:41;7.60;99.90
21167;DHT22;10741;52.272;9.580;2023-01-15T11:59:16;7.70;99.90
21167;DHT22;10741;52.272;9.580;2023-01-15T12:06:56;7.70;99.90
21167;DHT22;10741;52.272;9.580;2023-01-15T12:20:36;7.60;99.90
21167;DHT22;10741;52.272;9.580;2023-01-15T12:26:11;7.50;99.90
21167;DHT22;10741;52.272;9.580;2023-01-15T12:31:27;7.60;99.90
21167;DHT22;10741;52.272;9.580;2023-01-15T12:36:48;7.60;99.90
21167;DHT22;10741;52.272;9.580;2023-01-15T12:39:38;7.60;99.90
21167;DHT22;10741;52.272;9.580;2023-01-15T12:42:10;7.60;99.90
21167;DHT22;10741;52.272;9.580;2023-01-15T12:45:19;7.50;99.90
21167;DHT22;10741;52.272;9.580;2023-01-15T12:50:43;7.50;99.90
21167;DHT22;10741;52.272;9.580;2023-01-15T12:53:21;7.50;99.90
21167;DHT22;10741;52.272;9.580;2023-01-15T12:59:06;7.50;99.90
21167;DHT22;10741;52.272;9.580;2023-01-15T13:01:37;7.50;99.90
21167;DHT22;10741;52.272;9.580;2023-01-15T13:06:43;7.50;99.90
21167;DHT22;10741;52.272;9.580;2023-01-15T13:11:49;7.50;99.90
21167;DHT22;10741;52.272;9.580;2023-01-15T13:14:17;7.50;99.90
21167;DHT22;10741;52.272;9.580;2023-01-15T13:16:57;7.50;99.90
21167;DHT22;10741;52.272;9.580;2023-01-15T13:19:48;7.40;99.90
21167;DHT22;10741;52.272;9.580;2023-01-15T13:22:23;7.40;99.90
21167;DHT22;10741;52.272;9.580;2023-01-15T13:28:01;7.40;99.90
21167;DHT22;10741;52.272;9.580;2023-01-15T13:33:44;7.40;99.90
21167;DHT22;10741;52.272;9.580;2023-01-15T13:38:52;7.40;99.90
21167;DHT22;10741;52.272;9.580;2023-01-15T13:41:22;7.40;99.90
21167;DHT22;10741;52.272;9.580;2023-01-15T13:44:22;7.40;99.90
21167;DHT22;10741;52.272;9.580;2023-01-15T13:49:33;7.50;99.90
21167;DHT22;10741;52.272;9.580;2023-01-15T13:52:01;7.40;99.90
21167;DHT22;10741;52.272;9.580;2023-01-15T13:54:30;7.40;99.90
21167;DHT22;10741;52.272;9.580;2023-01-15T13:59:46;7.30;99.90
21167;DHT22;10741;52.272;9.580;2023-01-15T14:02:29;7.30;99.90
21167;DHT22;10741;52.272;9.580;2023-01-15T14:04:56;7.30;99.90
21167;DHT22;10741;52.272;9.580;2023-01-15T14:07:36;7.30;99.90
21167;DHT22;10741;52.272;9.580;2023-01-15T14:26:26;7.30;99.90
21167;DHT22;10741;52.272;9.580;2023-01-15T14:29:01;7.30;99.90
21167;DHT22;10741;52.272;9.580;2023-01-15T14:34:22;7.50;99.90
21167;DHT22;10741;52.272;9.580;2023-01-15T14:44:59;7.40;99.90
21167;DHT22;10741;52.272;9.580;2023-01-15T14:47:50;7.40;99.90
21167;DHT22;10741;52.272;9.580;2023-01-15T14:53:00;7.50;99.90
21167;DHT22;10741;52.272;9.580;2023-01-15T14:55:28;7.40;99.90
21167;DHT22;10741;52.272;9.580;2023-01-15T14:58:03;7.50;99.90
21167;DHT22;10741;52.272;9.580;2023-01-15T15:00:38;7.50;99.90
21167;DHT22;10741;52.272;9.580;2023-01-15T15:03:19;7.40;99.90
21167;DHT22;10741;52.272;9.580;2023-01-15T15:05:46;7.50;99.90
21167;DHT22;10741;52.272;9.580;2023-01-15T15:08:15;7.40;99.90
21167;DHT22;10741;52.272;9.580;2023-01-15T15:10:48;7.50;99.90
21167;DHT22;10741;52.272;9.580;2023-01-15T15:13:31;7.40;99.90
21167;DHT22;10741;52.272;9.580;2023-01-15T15:18:46;7.40;99.90
21167;DHT22;10741;52.272;9.580;2023-01-15T15:21:23;7.30;99.90
21167;DHT22;10741;52.272;9.580;2023-01-15T15:26:38;7.20;99.90
21167;DHT22;10741;52.272;9.580;2023-01-15T15:29:10;7.20;99.90
21167;DHT22;10741;52.272;9.580;2023-01-15T15:34:13;7.20;99.90
21167;DHT22;10741;52.272;9.580;2023-01-15T15:36:40;7.20;99.90
21167;DHT22;10741;52.272;9.580;2023-01-15T15:41:51;7.20;99.90
21167;DHT22;10741;52.272;9.580;2023-01-15T15:47:26;7.20;99.90
21167;DHT22;10741;52.272;9.580;2023-01-15T15:50:33;7.20;99.90
21167;DHT22;10741;52.272;9.580;2023-01-15T15:53:00;7.10;99.90
21167;DHT22;10741;52.272;9.580;2023-01-15T15:55:40;7.10;99.90
21167;DHT22;10741;52.272;9.580;2023-01-15T15:58:08;7.10;99.90
21167;DHT22;10741;52.272;9.580;2023-01-15T16:00:39;7.10;99.90
21167;DHT22;10741;52.272;9.580;2023-01-15T16:03:26;7.10;99.90
21167;DHT22;10741;52.272;9.580;2023-01-15T16:06:01;7.10;99.90
21167;DHT22;10741;52.272;9.580;2023-01-15T16:08:28;7.10;99.90
21167;DHT22;10741;52.272;9.580;2023-01-15T16:10:59;7.10;99.90
21167;DHT22;10741;52.272;9.580;2023-01-15T16:13:39;7.10;99.90
21167;DHT22;10741;52.272;9.580;2023-01-15T16:16:07;7.00;99.90
21167;DHT22;10741;52.272;9.580;2023-01-15T16:18:36;7.10;99.90
21167;DHT22;10741;52.272;9.580;2023-01-15T16:21:10;7.20;99.90
21167;DHT22;10741;52.272;9.580;2023-01-15T16:23:40;7.20;99.90
21167;DHT22;10741;52.272;9.580;2023-01-15T16:26:20;7.10;99.90
21167;DHT22;10741;52.272;9.580;2023-01-15T16:28:56;7.10;99.90
21167;DHT22;10741;52.272;9.580;2023-01-15T16:31:24;7.00;99.90
21167;DHT22;10741;52.272;9.580;2023-01-15T16:33:58;7.00;99.90
21167;DHT22;10741;52.272;9.580;2023-01-15T16:36:25;6.90;99.90
21167;DHT22;10741;52.272;9.580;2023-01-15T16:38:53;7.00;99.90
21167;DHT22;10741;52.272;9.580;2023-01-15T16:41:27;7.00;99.90
21167;DHT22;10741;52.272;9.580;2023-01-15T16:44:07;7.00;99.90
21167;DHT22;10741;52.272;9.580;2023-01-15T16:47:01;7.00;99.90
21167;DHT22;10741;52.272;9.580;2023-01-15T16:49:31;7.00;99.90
21167;DHT22;10741;52.272;9.580;2023-01-15T16:52:00;7.00;99.90
21167;DHT22;10741;52.272;9.580;2023-01-15T16:56:56;7.10;99.90
21167;DHT22;10741;52.272;9.580;2023-01-15T17:01:53;7.10;99.90
21167;DHT22;10741;52.272;9.580;2023-01-15T17:04:28;7.10;99.90
21167;DHT22;10741;52.272;9.580;2023-01-15T17:07:19;7.00;99.90
21167;DHT22;10741;52.272;9.580;2023-01-15T17:09:52;7.10;99.90
21167;DHT22;10741;52.272;9.580;2023-01-15T17:12:33;7.20;99.90
21167;DHT22;10741;52.272;9.580;2023-01-15T17:17:51;7.20;99.90
21167;DHT22;10741;52.272;9.580;2023-01-15T17:20:18;7.10;99.90
21167;DHT22;10741;52.272;9.580;2023-01-15T17:22:46;7.20;99.90
21167;DHT22;10741;52.272;9.580;2023-01-15T17:25:33;7.20;99.90
21167;DHT22;10741;52.272;9.580;2023-01-15T17:28:00;7.20;99.90
21167;DHT22;10741;52.272;9.580;2023-01-15T17:30:27;7.20;99.90
21167;DHT22;10741;52.272;9.580;2023-01-15T17:33:03;7.20;99.90
21167;DHT22;10741;52.272;9.580;2023-01-15T17:35:37;7.20;99.90
21167;DHT22;10741;52.272;9.580;2023-01-15T17:38:04;7.20;99.90
21167;DHT22;10741;52.272;9.580;2023-01-15T17:40:31;7.20;99.90
21167;DHT22;10741;52.272;9.580;2023-01-15T17:42:57;7.20;99.90
21167;DHT22;10741;52.272;9.580;2023-01-15T17:45:29;7.30;99.90
21167;DHT22;10741;52.272;9.580;2023-01-15T17:47:55;7.30;99.90
21167;DHT22;10741;52.272;9.580;2023-01-15T17:50:22;7.30;99.90
21167;DHT22;10741;52.272;9.580;2023-01-15T17:52:48;7.30;99.90
21167;DHT22;10741;52.272;9.580;2023-01-15T17:55:17;7.30;99.90
21167;DHT22;10741;52.272;9.580;2023-01-15T17:58:01;7.30;99.90
21167;DHT22;10741;52.272;9.580;2023-01-15T18:00:46;7.20;99.90
21167;DHT22;10741;52.272;9.580;2023-01-15T18:03:31;7.20;99.90
21167;DHT22;10741;52.272;9.580;2023-01-15T18:06:17;7.20;99.90
21167;DHT22;10741;52.272;9.580;2023-01-15T18:08:47;7.20;99.90
21167;DHT22;10741;52.272;9.580;2023-01-15T18:11:17;7.20;99.90
21167;DHT22;10741;52.272;9.580;2023-01-15T18:13:42;7.20;99.90
21167;DHT22;10741;52.272;9.580;2023-01-15T18:16:09;7.20;99.90
21167;DHT22;10741;52.272;9.580;2023-01-15T18:18:35;7.30;99.90
21167;DHT22;10741;52.272;9.580;2023-01-15T18:21:01;7.20;99.90
21167;DHT22;10741;52.272;9.580;2023-01-15T18:23:31;7.20;99.90
21167;DHT22;10741;52.272;9.580;2023-01-15T18:26:07;7.20;99.90
21167;DHT22;10741;52.272;9.580;2023-01-15T18:28:34;7.20;99.90
21167;DHT22;10741;52.272;9.580;2023-01-15T18:31:01;7.20;99.90
21167;DHT22;10741;52.272;9.580;2023-01-15T18:33:27;7.20;99.90
21167;DHT22;10741;52.272;9.580;2023-01-15T18:36:08;7.10;99.90
21167;DHT22;10741;52.272;9.580;2023-01-15T18:38:40;7.70;99.90
21167;DHT22;10741;52.272;9.580;2023-01-15T18:41:15;7.10;99.90
21167;DHT22;10741;52.272;9.580;2023-01-15T18:44:05;7.10;99.90
21167;DHT22;10741;52.272;9.580;2023-01-15T18:46:53;7.10;99.90
21167;DHT22;10741;52.272;9.580;2023-01-15T18:49:19;7.20;99.90